Anaconda, Montana
Current Conditions -  °F | °C
As of 11:53 PM on Saturday 22 Nov 2014 (Local Time) from KBTM Reporting Station
Overcast Overcast  
Wind Chill: 20°   Ceiling: 4000
Heat Index: 27°   Visibility: 10mi
Dew Point: 24°   Wind: 6mph
Humidity: 89%   Direction: 360°N
Pressure: 29.78"   Gusts: NA
Location:  46.13°N, 112.94°W
Report Text: KBTM 230653Z AUTO 36005KT 10SM OVC040 M03/M04 A2978 RMK AO2 SNE36 SLP106 P0001 T10281044 400391033
Loading
Personal Weather Stations






























Interactive Weather Map New forecast layout! Learn more

10-Day Weather Forecast

Advertisements
Track Severe Weather on mobile